Weather History for Mount Sterling, KY

Change the Weather History Date:

Tuesday, September 17, 2013

  Actual Average Record
Temperature  
Mean Temperature 63 °F -  
Max Temperature 75 °F 78 °F 75 °F (2013)
Min Temperature 51 °F 56 °F 46 °F (2014)
Degree Days  
Heating Degree Days 2    
Growing Degree Days 13 (Base 50)    
Moisture  
Dew Point 54 °F    
Average Humidity 77    
Maximum Humidity 100    
Minimum Humidity 47    
Precipitation  
Precipitation 0.00 in - - ()
Sea Level Pressure  
Sea Level Pressure 30.26 in    
Wind  
Wind Speed 5 mph (ESE)    
Max Wind Speed 14 mph    
Max Gust Speed 17 mph    
Visibility 9 miles    
Events      
Averages and records for this station are not official NWS values.
T = Trace of Precipitation, MM = Missing Value Source: NWS Daily Summary

Daily Weather History Graph

Daily Weather History Graph

Search for Another Location

Airport:

Trip Planner

Search our weather history database for the weather conditions in past years. The results will help you decide how hot, cold, wet, or windy it might be!

Date:

Astronomy

Sep. 17, 2013 Rise Set
Actual Time 7:19 AM EDT 7:40 PM EDT
Civil Twilight 6:53 AM EDT 8:06 PM EDT
Nautical Twilight 6:22 AM EDT 8:37 PM EDT
Astronomical Twilight 5:50 AM EDT 9:09 PM EDT
Moon 6:26 PM EDT (9/17) 5:14 AM EDT (9/17)
Length of Visible Light 13h 13m
Length of Day
12h 20m
Waxing Gibbous, 96% of the Moon is Illuminated
Sep 17
Waxing Gibbous
Sep 19
Full
Sep 26
Last Quarter
Oct 4
New
Oct 11
First Quarter

Hourly Weather History & Observations

Time (EDT) Temp. Dew Point Humidity Pressure Visibility Wind Dir Wind Speed Gust Speed Precip Events Conditions
12:15 AM 57.2 °F 55.4 °F 94% 30.29 in 10.0 mi East 4.6 mph - N/A   Clear
12:35 AM 57.2 °F 53.6 °F 88% 30.29 in 10.0 mi East 4.6 mph - N/A   Clear
12:55 AM 57.2 °F 55.4 °F 94% 30.29 in 10.0 mi ESE 3.5 mph - N/A   Clear
1:15 AM 55.4 °F 53.6 °F 94% 30.29 in 10.0 mi Calm Calm - N/A   Clear
1:35 AM 55.4 °F 53.6 °F 94% 30.29 in 10.0 mi East 3.5 mph - N/A   Clear
1:55 AM 51.8 °F 51.8 °F 100% 30.29 in 4.0 mi Calm Calm - N/A   Clear
2:15 AM 51.8 °F 51.8 °F 100% 30.29 in 4.0 mi Calm Calm - N/A   Clear
2:35 AM 51.8 °F 51.8 °F 100% 30.29 in 2.5 mi East 3.5 mph - N/A   Clear
2:55 AM 53.6 °F 51.8 °F 94% 30.29 in 10.0 mi East 3.5 mph - N/A   Clear
3:15 AM 53.6 °F 51.8 °F 94% 30.29 in 10.0 mi Calm Calm - N/A   Clear
3:35 AM 51.8 °F 51.8 °F 100% 30.29 in 4.0 mi East 3.5 mph - N/A   Scattered Clouds
3:55 AM 51.8 °F 51.8 °F 100% 30.29 in 7.0 mi NE 3.5 mph - N/A   Scattered Clouds
4:15 AM 51.8 °F 51.8 °F 100% 30.29 in 10.0 mi ENE 4.6 mph - N/A   Clear
4:35 AM 51.8 °F 51.8 °F 100% 30.30 in 7.0 mi East 3.5 mph - N/A   Clear
4:55 AM 51.8 °F 51.8 °F 100% 30.30 in 7.0 mi East 3.5 mph - N/A   Clear
5:15 AM 51.8 °F 51.8 °F 100% 30.29 in 7.0 mi ENE 3.5 mph - N/A   Clear
5:35 AM 51.8 °F 51.8 °F 100% 30.29 in 7.0 mi East 5.8 mph - N/A   Clear
5:55 AM 51.8 °F 51.8 °F 100% 30.30 in 10.0 mi East 5.8 mph - N/A   Clear
6:15 AM 51.8 °F 51.8 °F 100% 30.30 in 10.0 mi East 5.8 mph - N/A   Clear
6:35 AM 51.8 °F 51.8 °F 100% 30.30 in 10.0 mi East 6.9 mph - N/A   Clear
6:55 AM 51.8 °F 51.8 °F 100% 30.29 in 10.0 mi East 5.8 mph - N/A   Clear
7:15 AM 51.8 °F 51.8 °F 100% 30.30 in 7.0 mi East 6.9 mph - N/A   Clear
7:35 AM 51.8 °F 51.8 °F 100% 30.30 in 7.0 mi East 6.9 mph - N/A   Clear
7:55 AM 53.6 °F 51.8 °F 94% 30.31 in 7.0 mi East 5.8 mph - N/A   Clear
8:15 AM 53.6 °F 51.8 °F 94% 30.31 in 10.0 mi East 5.8 mph - N/A   Scattered Clouds
8:35 AM 53.6 °F 53.6 °F 100% 30.31 in 10.0 mi East 9.2 mph - N/A   Scattered Clouds
8:55 AM 55.4 °F 53.6 °F 94% 30.32 in 10.0 mi ESE 6.9 mph - N/A   Mostly Cloudy
9:15 AM 53.6 °F 53.6 °F 100% 30.32 in 7.0 mi East 9.2 mph - N/A   Mostly Cloudy
9:35 AM 55.4 °F 53.6 °F 94% 30.32 in 7.0 mi ESE 10.4 mph - N/A   Overcast
9:55 AM 55.4 °F 53.6 °F 94% 30.32 in 7.0 mi ESE 8.1 mph - N/A   Overcast
10:15 AM 57.2 °F 53.6 °F 88% 30.32 in 10.0 mi East 6.9 mph - N/A   Overcast
10:35 AM 60.8 °F 53.6 °F 77% 30.32 in 10.0 mi ESE 10.4 mph - N/A   Scattered Clouds
10:55 AM 60.8 °F 53.6 °F 77% 30.32 in 10.0 mi SE 9.2 mph - N/A   Scattered Clouds
11:15 AM 62.6 °F 53.6 °F 72% 30.32 in 10.0 mi ESE 10.4 mph - N/A   Scattered Clouds
11:35 AM 64.4 °F 53.6 °F 68% 30.32 in 10.0 mi ESE 9.2 mph - N/A   Clear
11:55 AM 66.2 °F 53.6 °F 64% 30.31 in 10.0 mi East 13.8 mph 17.3 mph N/A   Clear
12:15 PM 68.0 °F 53.6 °F 60% 30.30 in 10.0 mi East 11.5 mph - N/A   Clear
12:35 PM 68.0 °F 53.6 °F 60% 30.29 in 10.0 mi ESE 6.9 mph 17.3 mph N/A   Clear
12:55 PM 69.8 °F 51.8 °F 53% 30.29 in 10.0 mi ESE 5.8 mph 16.1 mph N/A   Clear
1:15 PM 69.8 °F 51.8 °F 53% 30.28 in 10.0 mi ESE 10.4 mph 17.3 mph N/A   Clear
1:35 PM 71.6 °F 51.8 °F 50% 30.27 in 10.0 mi ESE 6.9 mph 16.1 mph N/A   Clear
1:55 PM 71.6 °F 51.8 °F 50% 30.26 in 10.0 mi SE 6.9 mph - N/A   Clear
2:15 PM 71.6 °F 51.8 °F 50% 30.25 in 10.0 mi East 9.2 mph - N/A   Clear
2:35 PM 71.6 °F 51.8 °F 50% 30.25 in 10.0 mi East 9.2 mph - N/A   Clear
2:55 PM 73.4 °F 51.8 °F 47% 30.23 in 10.0 mi SE 4.6 mph - N/A   Clear
3:15 PM 73.4 °F 51.8 °F 47% 30.23 in 10.0 mi South 8.1 mph - N/A   Clear
3:35 PM 73.4 °F 53.6 °F 50% 30.22 in 10.0 mi SE 5.8 mph - N/A   Clear
3:55 PM 73.4 °F 53.6 °F 50% 30.22 in 10.0 mi East 5.8 mph - N/A   Clear
4:15 PM 75.2 °F 53.6 °F 47% 30.21 in 10.0 mi SE 4.6 mph - N/A   Clear
4:35 PM 75.2 °F 53.6 °F 47% 30.20 in 10.0 mi SE 9.2 mph - N/A   Clear
4:55 PM 73.4 °F 53.6 °F 50% 30.20 in 10.0 mi SE 5.8 mph - N/A   Clear
5:15 PM 73.4 °F 53.6 °F 50% 30.20 in 10.0 mi SSE 4.6 mph - N/A   Clear
5:35 PM 73.4 °F 53.6 °F 50% 30.20 in 10.0 mi South 4.6 mph - N/A   Clear
5:55 PM 73.4 °F 55.4 °F 53% 30.20 in 10.0 mi ESE 5.8 mph - N/A   Clear
6:15 PM 73.4 °F 55.4 °F 53% 30.20 in 10.0 mi ESE 8.1 mph - N/A   Clear
6:35 PM 71.6 °F 55.4 °F 57% 30.20 in 10.0 mi ESE 8.1 mph - N/A   Clear
6:55 PM 71.6 °F 55.4 °F 57% 30.19 in 10.0 mi ESE 5.8 mph - N/A   Clear
7:15 PM 71.6 °F 57.2 °F 60% 30.19 in 10.0 mi ESE 5.8 mph - N/A   Clear
7:35 PM 69.8 °F 57.2 °F 64% 30.19 in 10.0 mi ESE 5.8 mph - N/A   Clear
7:55 PM 69.8 °F 57.2 °F 64% 30.19 in 10.0 mi ESE 4.6 mph - N/A   Clear
8:15 PM 68.0 °F 57.2 °F 68% 30.19 in 10.0 mi East 4.6 mph - N/A   Clear
8:35 PM 68.0 °F 57.2 °F 68% 30.19 in 10.0 mi ESE 3.5 mph - N/A   Scattered Clouds
8:55 PM 66.2 °F 57.2 °F 73% 30.19 in 10.0 mi ESE 4.6 mph - N/A   Scattered Clouds
9:15 PM 66.2 °F 59.0 °F 78% 30.20 in 10.0 mi East 3.5 mph - N/A   Mostly Cloudy
9:35 PM 66.2 °F 59.0 °F 78% 30.19 in 10.0 mi ESE 5.8 mph - N/A   Overcast
9:55 PM 68.0 °F 59.0 °F 73% 30.19 in 10.0 mi ESE 4.6 mph - N/A   Overcast
10:15 PM 68.0 °F 59.0 °F 73% 30.19 in 10.0 mi SE 4.6 mph - N/A   Overcast
10:35 PM 66.2 °F 59.0 °F 78% 30.19 in 10.0 mi ESE 3.5 mph - N/A   Overcast
10:55 PM 66.2 °F 59.0 °F 78% 30.20 in 10.0 mi ESE 4.6 mph - N/A   Overcast
11:15 PM 66.2 °F 59.0 °F 78% 30.19 in 10.0 mi ESE 4.6 mph - N/A   Mostly Cloudy
11:35 PM 64.4 °F 59.0 °F 83% 30.19 in 10.0 mi ESE 3.5 mph - N/A   Mostly Cloudy
11:55 PM 64.4 °F 59.0 °F 83% 30.19 in 10.0 mi ESE 4.6 mph - N/A   Scattered Clouds